Time;durP1;ratioP1;P1;durP2;ratioP2;P2;SDS_P1;SDS_P2;PMS_P1;PMS_P2;Temp;Humidity;BMP_temperature;BMP_pressure;BME280_temperature;BME280_humidity;BME280_pressure;Samples;Min_cycle;Max_cycle;Signal;HPM_P1;HPM_P2
2021/12/18 00:01:52;;;;;;;;;;;10.30;96.50;;;;;;5026026;28;19913;-86
2021/12/18 00:04:19;;;;;;;;;;;10.30;96.50;;;;;;5011202;28;19913;-87
2021/12/18 00:06:46;;;;;;;;;;;10.30;96.50;;;;;;5012925;28;19912;-86
2021/12/18 00:09:13;;;;;;;;;;;10.30;96.50;;;;;;5010752;28;20397;-86
2021/12/18 00:11:40;;;;;;;;;;;10.30;96.50;;;;;;5023500;28;20100;-86
2021/12/18 00:14:07;;;;;;;;;;;10.30;96.50;;;;;;5027585;28;19915;-86
2021/12/18 00:16:33;;;;;;;;;;;10.30;96.50;;;;;;5028150;28;19947;-86
2021/12/18 00:19:00;;;;;;;;;;;10.30;96.50;;;;;;5029389;28;19917;-87
2021/12/18 00:21:27;;;;;;;;;;;10.40;96.60;;;;;;5010044;28;20299;-87
2021/12/18 00:23:54;;;;;;;;;;;10.40;96.60;;;;;;5025324;28;20215;-87
2021/12/18 00:26:21;;;;;;;;;;;10.30;96.60;;;;;;5028139;28;19913;-87
2021/12/18 00:28:48;;;;;;;;;;;10.30;96.70;;;;;;5032164;28;19909;-87
2021/12/18 00:31:15;;;;;;;;;;;10.30;96.60;;;;;;5036918;28;19939;-87
2021/12/18 00:33:42;;;;;;;;;;;10.30;96.60;;;;;;5033608;28;20117;-87
2021/12/18 00:36:09;;;;;;;;;;;10.30;96.60;;;;;;5023132;28;19919;-87
2021/12/18 00:38:35;;;;;;;;;;;10.30;96.70;;;;;;5030408;28;20037;-87
2021/12/18 00:43:40;;;;;;;;;;;10.30;96.70;;;;;;5022153;28;19909;-86
2021/12/18 00:46:07;;;;;;;;;;;10.30;96.70;;;;;;5030628;28;19909;-86
2021/12/18 00:48:34;;;;;;;;;;;10.30;96.70;;;;;;5022026;28;20279;-87
2021/12/18 00:51:01;;;;;;;;;;;10.30;96.80;;;;;;5042378;28;21373;-87
2021/12/18 00:53:28;;;;;;;;;;;10.30;96.70;;;;;;5013842;28;19995;-86
2021/12/18 00:55:56;;;;;;;;;;;10.30;96.80;;;;;;5024781;28;19909;-86
2021/12/18 00:58:22;;;;;;;;;;;10.30;96.80;;;;;;5028011;28;19916;-87
2021/12/18 01:00:52;;;;;;;;;;;10.30;96.70;;;;;;5037209;28;19916;-86
2021/12/18 01:03:20;;;;;;;;;;;10.30;96.80;;;;;;5032306;28;19913;-86
2021/12/18 01:05:47;;;;;;;;;;;10.30;96.80;;;;;;5021325;28;19916;-86
2021/12/18 01:08:14;;;;;;;;;;;10.30;96.70;;;;;;5016324;28;19917;-86
2021/12/18 01:13:13;;;;;;;;;;;10.30;96.70;;;;;;5026407;28;19915;-87
2021/12/18 01:15:46;;;;;;;;;;;10.30;96.70;;;;;;5026066;28;20221;-86
2021/12/18 01:23:45;;;;;;;;;;;10.30;96.80;;;;;;5034036;28;19915;-87
2021/12/18 01:26:13;;;;;;;;;;;10.30;96.80;;;;;;5029192;28;20127;-87
2021/12/18 01:28:40;;;;;;;;;;;10.30;96.80;;;;;;5014889;28;19939;-87
2021/12/18 01:31:08;;;;;;;;;;;10.30;96.80;;;;;;5036892;28;20211;-87
2021/12/18 01:33:35;;;;;;;;;;;10.30;96.90;;;;;;5029345;28;20102;-87
2021/12/18 01:36:03;;;;;;;;;;;10.30;96.90;;;;;;5036533;28;20273;-87
2021/12/18 01:38:31;;;;;;;;;;;10.30;96.80;;;;;;4988737;28;20091;-88
2021/12/18 01:40:58;;;;;;;;;;;10.30;96.90;;;;;;5046714;28;19915;-87
2021/12/18 01:44:32;;;;;;;;;;;10.30;96.80;;;;;;5009716;28;19915;-87
2021/12/18 01:52:23;;;;;;;;;;;10.30;96.80;;;;;;4986805;28;19917;-86
2021/12/18 01:54:50;;;;;;;;;;;10.30;96.80;;;;;;5012399;28;19917;-86
2021/12/18 01:57:17;;;;;;;;;;;10.30;96.80;;;;;;5031237;28;20246;-87
2021/12/18 01:59:47;;;;;;;;;;;10.30;96.70;;;;;;5037499;28;19908;-87
2021/12/18 02:02:15;;;;;;;;;;;10.30;96.80;;;;;;5031502;28;19915;-87
2021/12/18 02:04:43;;;;;;;;;;;10.30;96.80;;;;;;5037847;28;20309;-87
2021/12/18 02:07:10;;;;;;;;;;;10.30;96.80;;;;;;5037881;28;20215;-86
2021/12/18 02:12:11;;;;;;;;;;;10.40;96.90;;;;;;5022166;28;19935;-87
2021/12/18 02:20:56;;;;;;;;;;;10.40;96.90;;;;;;5026131;28;20034;-87
2021/12/18 02:22:57;;;;;;;;;;;10.30;96.90;;;;;;5002144;28;20489;-86
2021/12/18 02:25:25;;;;;;;;;;;10.30;96.90;;;;;;5019637;28;19905;-87
2021/12/18 02:27:55;;;;;;;;;;;10.30;96.90;;;;;;5037608;28;19913;-87
2021/12/18 02:30:22;;;;;;;;;;;10.30;96.90;;;;;;5017819;28;19915;-87
2021/12/18 02:32:50;;;;;;;;;;;10.30;96.90;;;;;;5030417;28;19912;-86
2021/12/18 02:35:28;;;;;;;;;;;10.30;96.90;;;;;;5033779;28;19916;-87
2021/12/18 02:38:09;;;;;;;;;;;10.30;96.90;;;;;;5028859;28;19927;-87
2021/12/18 02:41:00;;;;;;;;;;;10.30;96.90;;;;;;5005558;28;19913;-87
2021/12/18 02:43:38;;;;;;;;;;;10.40;96.90;;;;;;5047858;28;19947;-87
2021/12/18 02:46:07;;;;;;;;;;;10.30;96.90;;;;;;5020661;28;20108;-86
2021/12/18 02:48:38;;;;;;;;;;;10.40;97.00;;;;;;5022315;28;19932;-87
2021/12/18 02:51:06;;;;;;;;;;;10.40;97.00;;;;;;5013604;28;19909;-87
2021/12/18 02:53:34;;;;;;;;;;;10.40;97.00;;;;;;5021314;28;19923;-87
2021/12/18 02:56:03;;;;;;;;;;;10.40;97.00;;;;;;5007188;28;19916;-87
2021/12/18 02:58:30;;;;;;;;;;;10.40;97.00;;;;;;5017954;28;19909;-87
2021/12/18 03:00:58;;;;;;;;;;;10.40;97.00;;;;;;5044407;28;20459;-87
2021/12/18 03:03:29;;;;;;;;;;;10.40;97.00;;;;;;5014123;28;19913;-86
2021/12/18 03:09:14;;;;;;;;;;;10.40;97.00;;;;;;5031061;28;19912;-87
2021/12/18 03:25:11;;;;;;;;;;;10.30;97.00;;;;;;5012967;28;20700;-86
2021/12/18 03:27:38;;;;;;;;;;;10.30;97.00;;;;;;5015156;28;19909;-86
2021/12/18 03:30:05;;;;;;;;;;;10.30;97.00;;;;;;5023685;28;20018;-86
2021/12/18 03:32:32;;;;;;;;;;;10.40;97.00;;;;;;5044524;28;19919;-86
2021/12/18 03:34:59;;;;;;;;;;;10.40;96.90;;;;;;5028385;28;19913;-86
2021/12/18 03:37:26;;;;;;;;;;;10.40;96.90;;;;;;5025047;28;19908;-86
2021/12/18 03:39:52;;;;;;;;;;;10.40;96.90;;;;;;5018588;28;19939;-86
2021/12/18 03:42:19;;;;;;;;;;;10.40;96.90;;;;;;5013761;28;19909;-86
2021/12/18 03:44:47;;;;;;;;;;;10.40;96.90;;;;;;5030198;28;19908;-87
2021/12/18 03:47:14;;;;;;;;;;;10.40;96.80;;;;;;5030697;28;19924;-87
2021/12/18 03:49:41;;;;;;;;;;;10.40;96.80;;;;;;5018351;28;19916;-86
2021/12/18 03:52:08;;;;;;;;;;;10.40;96.80;;;;;;5039474;28;20265;-86
2021/12/18 03:54:35;;;;;;;;;;;10.40;96.80;;;;;;5046059;28;19908;-87
2021/12/18 03:57:02;;;;;;;;;;;10.40;96.80;;;;;;5016009;28;20442;-87
2021/12/18 03:59:29;;;;;;;;;;;10.40;96.90;;;;;;5008635;28;20310;-86
2021/12/18 04:01:56;;;;;;;;;;;10.40;96.80;;;;;;5018464;28;19948;-86
2021/12/18 04:04:23;;;;;;;;;;;10.40;96.90;;;;;;5028896;28;19912;-86
2021/12/18 04:06:50;;;;;;;;;;;10.40;96.80;;;;;;5031336;28;19915;-86
2021/12/18 04:09:17;;;;;;;;;;;10.40;96.80;;;;;;5026062;28;19935;-86
2021/12/18 04:11:44;;;;;;;;;;;10.40;96.80;;;;;;5034016;28;19909;-86
2021/12/18 04:14:12;;;;;;;;;;;10.40;96.80;;;;;;5020861;28;19908;-86
2021/12/18 04:16:39;;;;;;;;;;;10.40;96.80;;;;;;5038274;28;19908;-86
2021/12/18 04:19:06;;;;;;;;;;;10.40;96.80;;;;;;5038573;28;20009;-86
2021/12/18 04:21:33;;;;;;;;;;;10.40;96.80;;;;;;5018919;28;19917;-86
2021/12/18 04:24:00;;;;;;;;;;;10.40;96.80;;;;;;5029298;28;19939;-87
2021/12/18 04:26:27;;;;;;;;;;;10.40;96.80;;;;;;5031955;28;20273;-86
2021/12/18 04:28:53;;;;;;;;;;;10.40;96.70;;;;;;5015166;28;19931;-86
2021/12/18 04:31:20;;;;;;;;;;;10.40;96.70;;;;;;5031050;28;19909;-86
2021/12/18 04:33:47;;;;;;;;;;;10.40;96.70;;;;;;5033603;28;20003;-87
2021/12/18 04:36:14;;;;;;;;;;;10.40;96.80;;;;;;5025751;28;19955;-87
2021/12/18 04:38:41;;;;;;;;;;;10.40;96.80;;;;;;5030035;28;19919;-86
2021/12/18 04:41:10;;;;;;;;;;;10.40;96.80;;;;;;5024841;28;19919;-87
2021/12/18 04:43:37;;;;;;;;;;;10.40;96.80;;;;;;5023918;28;20221;-87
2021/12/18 04:46:03;;;;;;;;;;;10.40;96.80;;;;;;5010744;28;19932;-88
2021/12/18 04:48:30;;;;;;;;;;;10.40;96.80;;;;;;5023976;28;20192;-86
2021/12/18 04:50:57;;;;;;;;;;;10.30;96.80;;;;;;5021336;28;20103;-87
2021/12/18 04:53:24;;;;;;;;;;;10.40;96.80;;;;;;5019532;28;19909;-87
2021/12/18 04:55:51;;;;;;;;;;;10.40;96.80;;;;;;5023900;28;19917;-87
2021/12/18 04:58:18;;;;;;;;;;;10.30;96.80;;;;;;5030122;28;19931;-87
2021/12/18 05:00:47;;;;;;;;;;;10.30;96.80;;;;;;5012754;28;20222;-86
2021/12/18 05:03:16;;;;;;;;;;;10.30;96.80;;;;;;5024595;28;19909;-86
2021/12/18 05:05:43;;;;;;;;;;;10.40;96.80;;;;;;5029258;28;19913;-87
2021/12/18 05:08:10;;;;;;;;;;;10.30;96.80;;;;;;5016336;28;19913;-87
2021/12/18 05:10:37;;;;;;;;;;;10.30;96.80;;;;;;5051517;28;20497;-86
2021/12/18 05:13:04;;;;;;;;;;;10.30;96.80;;;;;;5021047;28;20190;-87
2021/12/18 05:15:31;;;;;;;;;;;10.30;96.80;;;;;;5032030;28;19919;-88
2021/12/18 05:17:58;;;;;;;;;;;10.30;96.90;;;;;;5018670;28;19918;-87
2021/12/18 05:20:25;;;;;;;;;;;10.30;96.90;;;;;;5036252;28;19916;-87
2021/12/18 05:22:51;;;;;;;;;;;10.30;96.90;;;;;;5012003;28;20361;-86
2021/12/18 05:25:18;;;;;;;;;;;10.30;96.90;;;;;;5023129;28;19913;-86
2021/12/18 05:27:45;;;;;;;;;;;10.30;96.90;;;;;;5038702;28;20407;-87
2021/12/18 05:30:12;;;;;;;;;;;10.30;96.90;;;;;;5024224;28;20285;-87
2021/12/18 05:32:39;;;;;;;;;;;10.30;97.00;;;;;;5019596;28;19917;-87
2021/12/18 05:35:06;;;;;;;;;;;10.30;96.90;;;;;;5029806;28;19908;-87
2021/12/18 05:37:51;;;;;;;;;;;10.30;96.90;;;;;;5029772;28;19909;-87
2021/12/18 05:40:20;;;;;;;;;;;10.30;96.90;;;;;;5020446;28;19964;-87
2021/12/18 05:42:47;;;;;;;;;;;10.30;96.90;;;;;;5031505;28;19916;-87
2021/12/18 05:45:13;;;;;;;;;;;10.30;97.00;;;;;;5028356;28;19919;-87
2021/12/18 05:47:42;;;;;;;;;;;10.30;97.00;;;;;;5032572;28;20166;-86
2021/12/18 05:50:10;;;;;;;;;;;10.30;97.00;;;;;;5030830;28;20119;-86
2021/12/18 05:52:38;;;;;;;;;;;10.30;97.00;;;;;;5035501;28;19919;-88
2021/12/18 05:55:05;;;;;;;;;;;10.30;97.00;;;;;;5012345;28;20109;-87
2021/12/18 05:57:32;;;;;;;;;;;10.20;96.90;;;;;;5028280;28;19905;-86
2021/12/18 05:59:58;;;;;;;;;;;10.20;96.90;;;;;;5023818;28;20185;-86
2021/12/18 06:02:25;;;;;;;;;;;10.30;96.90;;;;;;5018977;28;19915;-86
2021/12/18 06:04:52;;;;;;;;;;;10.30;97.00;;;;;;5014647;28;19905;-87
2021/12/18 06:07:39;;;;;;;;;;;10.30;97.00;;;;;;5036065;28;20723;-87
2021/12/18 06:10:06;;;;;;;;;;;10.30;97.00;;;;;;5033445;28;19913;-87
2021/12/18 06:12:33;;;;;;;;;;;10.30;96.90;;;;;;5025792;28;19912;-87
2021/12/18 06:14:59;;;;;;;;;;;10.30;96.90;;;;;;5019454;28;19915;-87
2021/12/18 06:17:26;;;;;;;;;;;10.30;97.00;;;;;;5032445;28;19916;-87
2021/12/18 06:19:53;;;;;;;;;;;10.20;96.90;;;;;;5019261;28;19916;-87
2021/12/18 06:22:20;;;;;;;;;;;10.20;96.90;;;;;;5032566;28;19917;-87
2021/12/18 06:24:47;;;;;;;;;;;10.20;96.90;;;;;;5015971;28;20400;-86
2021/12/18 06:27:14;;;;;;;;;;;10.30;96.90;;;;;;5018196;28;20117;-87
2021/12/18 06:29:42;;;;;;;;;;;10.20;96.90;;;;;;5024937;28;19928;-86
2021/12/18 06:32:09;;;;;;;;;;;10.20;96.90;;;;;;5044589;28;20408;-86
2021/12/18 06:34:35;;;;;;;;;;;10.20;96.90;;;;;;5023582;28;20279;-87
2021/12/18 06:37:02;;;;;;;;;;;10.30;96.90;;;;;;5017547;28;19913;-87
2021/12/18 06:39:29;;;;;;;;;;;10.30;97.00;;;;;;5020634;28;19912;-87
2021/12/18 06:41:56;;;;;;;;;;;10.30;97.00;;;;;;5024386;28;20297;-87
2021/12/18 06:44:23;;;;;;;;;;;10.20;96.90;;;;;;5025376;28;20404;-87
2021/12/18 06:46:50;;;;;;;;;;;10.30;96.90;;;;;;5024281;28;19909;-86
2021/12/18 06:49:17;;;;;;;;;;;10.20;96.90;;;;;;5014267;28;20274;-86
2021/12/18 06:51:43;;;;;;;;;;;10.30;96.90;;;;;;5015505;28;20017;-86
2021/12/18 06:54:10;;;;;;;;;;;10.30;96.90;;;;;;5019847;28;19915;-87
2021/12/18 06:56:37;;;;;;;;;;;10.20;97.00;;;;;;5008945;28;20113;-87
2021/12/18 06:59:04;;;;;;;;;;;10.30;97.00;;;;;;5023848;28;19923;-87
2021/12/18 07:01:31;;;;;;;;;;;10.20;96.90;;;;;;5028835;28;19909;-86
2021/12/18 07:03:57;;;;;;;;;;;10.20;96.90;;;;;;5021512;28;20200;-86
2021/12/18 07:06:24;;;;;;;;;;;10.30;97.00;;;;;;5024609;28;20262;-86
2021/12/18 07:08:51;;;;;;;;;;;10.30;96.90;;;;;;5004425;28;19908;-86
2021/12/18 07:11:18;;;;;;;;;;;10.20;96.90;;;;;;5035381;28;19913;-86
2021/12/18 07:13:45;;;;;;;;;;;10.30;97.00;;;;;;5012306;28;20018;-86
2021/12/18 07:16:12;;;;;;;;;;;10.20;96.90;;;;;;5028762;28;19932;-86
2021/12/18 07:18:38;;;;;;;;;;;10.20;96.90;;;;;;5029632;28;19912;-86
2021/12/18 07:21:05;;;;;;;;;;;10.30;96.90;;;;;;5024503;28;19915;-86
2021/12/18 07:23:32;;;;;;;;;;;10.30;96.90;;;;;;5010779;28;20598;-87
2021/12/18 07:25:59;;;;;;;;;;;10.30;96.90;;;;;;5041076;28;19913;-87
2021/12/18 07:28:26;;;;;;;;;;;10.30;96.90;;;;;;5014152;28;19939;-86
2021/12/18 07:30:53;;;;;;;;;;;10.30;96.90;;;;;;5023385;28;19963;-86
2021/12/18 07:33:20;;;;;;;;;;;10.30;96.90;;;;;;5030411;28;19917;-87
2021/12/18 07:35:47;;;;;;;;;;;10.30;96.90;;;;;;5046133;28;19909;-86
2021/12/18 07:38:14;;;;;;;;;;;10.30;96.80;;;;;;5020915;28;19912;-86
2021/12/18 07:40:41;;;;;;;;;;;10.30;96.80;;;;;;5002534;28;20135;-87
2021/12/18 07:43:08;;;;;;;;;;;10.30;96.80;;;;;;5041167;28;20288;-87
2021/12/18 07:45:35;;;;;;;;;;;10.30;96.70;;;;;;5008799;28;19909;-87
2021/12/18 07:48:02;;;;;;;;;;;10.20;96.70;;;;;;5033933;28;19908;-87
2021/12/18 07:50:29;;;;;;;;;;;10.20;96.70;;;;;;5022895;28;19917;-86
2021/12/18 07:52:56;;;;;;;;;;;10.20;96.70;;;;;;5045904;28;19916;-87
2021/12/18 07:55:23;;;;;;;;;;;10.20;96.70;;;;;;5019848;28;19912;-87
2021/12/18 07:57:54;;;;;;;;;;;10.20;96.70;;;;;;5024484;28;19940;-86
2021/12/18 08:00:21;;;;;;;;;;;10.20;96.70;;;;;;5019562;28;19909;-87
2021/12/18 08:02:47;;;;;;;;;;;10.20;96.80;;;;;;5034684;28;19935;-87
2021/12/18 08:05:14;;;;;;;;;;;10.20;96.70;;;;;;5043135;28;20372;-86
2021/12/18 08:07:42;;;;;;;;;;;10.20;96.70;;;;;;5028901;28;20408;-87
2021/12/18 08:10:09;;;;;;;;;;;10.20;96.70;;;;;;5014019;28;19924;-87
2021/12/18 08:12:36;;;;;;;;;;;10.20;96.70;;;;;;5021770;28;19913;-86
2021/12/18 08:15:03;;;;;;;;;;;10.20;96.70;;;;;;5035736;28;20102;-86
2021/12/18 08:17:30;;;;;;;;;;;10.20;96.70;;;;;;5018931;28;19920;-87
2021/12/18 08:19:57;;;;;;;;;;;10.10;96.70;;;;;;5030301;28;20197;-87
2021/12/18 08:22:24;;;;;;;;;;;10.10;96.70;;;;;;5036287;28;19912;-87
2021/12/18 08:24:51;;;;;;;;;;;10.20;96.70;;;;;;5011596;28;19939;-86
2021/12/18 08:27:18;;;;;;;;;;;10.10;96.70;;;;;;5026496;28;19919;-87
2021/12/18 08:29:45;;;;;;;;;;;10.10;96.70;;;;;;5022524;28;19916;-87
2021/12/18 08:32:12;;;;;;;;;;;10.10;96.80;;;;;;5008522;28;19921;-87
2021/12/18 08:34:39;;;;;;;;;;;10.20;96.70;;;;;;5024994;28;19912;-87
2021/12/18 08:37:06;;;;;;;;;;;10.10;96.70;;;;;;5030885;28;20189;-86
2021/12/18 08:39:32;;;;;;;;;;;10.10;96.70;;;;;;5023795;28;20366;-87
2021/12/18 08:42:03;;;;;;;;;;;10.10;96.80;;;;;;5033906;28;20098;-87
2021/12/18 08:44:31;;;;;;;;;;;10.10;96.80;;;;;;5028632;28;20250;-86
2021/12/18 08:46:58;;;;;;;;;;;10.10;96.80;;;;;;4995505;28;19916;-87
2021/12/18 08:49:25;;;;;;;;;;;10.10;96.80;;;;;;5029460;28;20360;-87
2021/12/18 08:51:53;;;;;;;;;;;10.10;96.80;;;;;;5029202;28;19921;-87
2021/12/18 08:54:20;;;;;;;;;;;10.10;96.80;;;;;;5025527;28;19913;-87
2021/12/18 08:56:47;;;;;;;;;;;10.20;96.90;;;;;;5010020;28;20555;-86
2021/12/18 08:59:13;;;;;;;;;;;10.10;96.80;;;;;;5018562;28;19942;-87
2021/12/18 09:01:40;;;;;;;;;;;10.20;96.90;;;;;;5019089;28;19913;-87
2021/12/18 09:04:07;;;;;;;;;;;10.10;96.90;;;;;;5017471;28;19909;-87
2021/12/18 09:06:34;;;;;;;;;;;10.10;96.90;;;;;;5020267;28;20370;-87
2021/12/18 09:09:01;;;;;;;;;;;10.20;96.90;;;;;;5031374;28;20007;-87
2021/12/18 09:11:28;;;;;;;;;;;10.20;97.00;;;;;;5017084;28;19924;-87
2021/12/18 09:13:55;;;;;;;;;;;10.20;97.00;;;;;;5017143;28;19910;-87
2021/12/18 09:16:22;;;;;;;;;;;10.20;97.00;;;;;;5020458;28;20259;-87
2021/12/18 09:18:49;;;;;;;;;;;10.20;97.00;;;;;;5032777;28;19916;-87
2021/12/18 09:21:15;;;;;;;;;;;10.20;97.00;;;;;;5023680;28;19920;-86
2021/12/18 09:23:42;;;;;;;;;;;10.20;97.00;;;;;;5018244;28;20121;-87
2021/12/18 09:26:09;;;;;;;;;;;10.30;97.10;;;;;;5009380;28;20411;-87
2021/12/18 09:28:36;;;;;;;;;;;10.30;97.10;;;;;;5027132;28;19908;-87
2021/12/18 09:31:03;;;;;;;;;;;10.30;97.10;;;;;;5019711;28;19939;-87
2021/12/18 09:33:30;;;;;;;;;;;10.40;97.10;;;;;;5001098;28;20132;-87
2021/12/18 09:35:57;;;;;;;;;;;10.30;97.10;;;;;;5025663;28;20396;-87
2021/12/18 09:38:24;;;;;;;;;;;10.40;97.10;;;;;;5022995;28;19924;-87
2021/12/18 09:40:51;;;;;;;;;;;10.40;97.10;;;;;;5010537;28;20300;-87
2021/12/18 09:43:17;;;;;;;;;;;10.40;97.10;;;;;;5031788;28;19928;-87
2021/12/18 09:45:46;;;;;;;;;;;10.40;97.10;;;;;;5024998;28;20357;-86
2021/12/18 09:48:13;;;;;;;;;;;10.40;97.10;;;;;;5032928;28;19915;-87
2021/12/18 09:50:42;;;;;;;;;;;10.40;97.10;;;;;;5035167;28;19991;-86
2021/12/18 09:53:09;;;;;;;;;;;10.40;97.10;;;;;;5018005;28;19917;-86
2021/12/18 09:55:36;;;;;;;;;;;10.50;97.10;;;;;;5028074;28;19913;-86
2021/12/18 09:58:03;;;;;;;;;;;10.50;97.10;;;;;;5015797;28;20105;-86
2021/12/18 10:00:30;;;;;;;;;;;10.50;97.10;;;;;;5024593;28;20277;-86
2021/12/18 10:02:57;;;;;;;;;;;10.50;97.10;;;;;;5011479;28;20407;-87
2021/12/18 10:05:27;;;;;;;;;;;10.50;97.10;;;;;;5018997;28;20380;-86
2021/12/18 10:08:06;;;;;;;;;;;10.50;97.10;;;;;;5025823;28;19917;-86
2021/12/18 10:10:33;;;;;;;;;;;10.60;97.10;;;;;;5019453;28;19912;-86
2021/12/18 10:13:03;;;;;;;;;;;10.60;97.00;;;;;;5034375;28;20420;-86
2021/12/18 10:15:30;;;;;;;;;;;10.60;97.00;;;;;;5031465;28;19915;-86
2021/12/18 10:18:07;;;;;;;;;;;10.60;97.00;;;;;;5012813;28;19987;-86
2021/12/18 10:20:35;;;;;;;;;;;10.60;97.00;;;;;;5027683;28;19909;-86
2021/12/18 10:23:04;;;;;;;;;;;10.60;97.00;;;;;;5013621;28;20539;-87
2021/12/18 10:25:42;;;;;;;;;;;10.60;97.00;;;;;;5034979;28;19917;-87
2021/12/18 10:28:16;;;;;;;;;;;10.60;97.00;;;;;;5013066;28;23654;-87
2021/12/18 10:31:03;;;;;;;;;;;10.60;97.00;;;;;;5028579;28;19915;-87
2021/12/18 10:33:31;;;;;;;;;;;10.60;97.00;;;;;;5028044;28;19927;-87
2021/12/18 10:35:58;;;;;;;;;;;10.60;96.90;;;;;;5021385;28;20373;-87
2021/12/18 10:38:49;;;;;;;;;;;10.60;97.00;;;;;;5026862;28;19939;-86
2021/12/18 10:41:21;;;;;;;;;;;10.60;97.00;;;;;;5031379;28;19923;-87
2021/12/18 10:43:54;;;;;;;;;;;10.60;97.30;;;;;;5005218;28;20278;-86
2021/12/18 10:46:21;;;;;;;;;;;10.60;97.00;;;;;;5026699;28;19919;-87
2021/12/18 10:48:59;;;;;;;;;;;10.60;97.00;;;;;;5025343;28;19908;-87
2021/12/18 10:51:27;;;;;;;;;;;10.60;97.00;;;;;;5013593;28;19916;-87
2021/12/18 10:54:00;;;;;;;;;;;10.60;97.00;;;;;;5026570;28;20145;-86
2021/12/18 10:56:32;;;;;;;;;;;10.60;96.90;;;;;;5028849;28;20316;-87
2021/12/18 10:58:59;;;;;;;;;;;10.60;97.00;;;;;;5025749;28;19909;-87
2021/12/18 11:01:25;;;;;;;;;;;10.60;97.00;;;;;;5017713;28;19908;-86
2021/12/18 11:03:52;;;;;;;;;;;10.60;96.90;;;;;;5020902;28;20410;-86
2021/12/18 11:06:23;;;;;;;;;;;10.60;97.00;;;;;;5006700;28;19915;-86
2021/12/18 11:08:58;;;;;;;;;;;10.70;97.00;;;;;;5028584;28;19908;-86
2021/12/18 11:14:02;;;;;;;;;;;10.70;97.00;;;;;;5021122;28;20286;-87
2021/12/18 11:16:29;;;;;;;;;;;10.70;97.00;;;;;;5024734;28;19934;-87
2021/12/18 11:18:56;;;;;;;;;;;10.70;97.00;;;;;;5021592;28;19939;-87
2021/12/18 11:21:24;;;;;;;;;;;10.70;96.90;;;;;;5014443;28;19909;-86
2021/12/18 11:23:54;;;;;;;;;;;10.70;96.90;;;;;;5027506;28;19919;-86
2021/12/18 11:26:23;;;;;;;;;;;10.80;96.90;;;;;;5025258;28;20041;-87
2021/12/18 11:28:51;;;;;;;;;;;10.80;96.80;;;;;;5024527;28;19923;-87
2021/12/18 11:31:18;;;;;;;;;;;10.80;96.90;;;;;;5021224;28;19909;-87
2021/12/18 11:33:45;;;;;;;;;;;10.80;96.90;;;;;;5017887;28;19916;-86
2021/12/18 11:36:12;;;;;;;;;;;10.80;96.90;;;;;;5014701;28;19924;-87
2021/12/18 11:38:41;;;;;;;;;;;10.80;96.80;;;;;;5026326;28;19913;-86
2021/12/18 11:41:15;;;;;;;;;;;10.80;96.80;;;;;;5038645;28;19923;-86
2021/12/18 11:43:45;;;;;;;;;;;10.80;96.80;;;;;;5019187;28;20415;-86
2021/12/18 11:46:27;;;;;;;;;;;10.80;96.80;;;;;;5014170;28;20267;-86
2021/12/18 11:48:54;;;;;;;;;;;10.90;96.90;;;;;;5010295;28;20112;-86
2021/12/18 11:51:22;;;;;;;;;;;10.90;96.90;;;;;;5025220;28;20363;-87
2021/12/18 11:53:48;;;;;;;;;;;10.90;96.80;;;;;;5028891;28;20292;-87
2021/12/18 11:56:16;;;;;;;;;;;10.90;96.80;;;;;;5035047;28;19909;-86
2021/12/18 11:58:45;;;;;;;;;;;10.90;96.80;;;;;;5013687;28;20150;-87
2021/12/18 12:01:11;;;;;;;;;;;10.90;96.80;;;;;;5026766;28;19909;-87
2021/12/18 12:03:40;;;;;;;;;;;11.00;96.80;;;;;;5012490;28;20559;-87
2021/12/18 12:06:26;;;;;;;;;;;11.00;97.00;;;;;;5015104;28;19917;-87
2021/12/18 12:09:15;;;;;;;;;;;11.00;96.90;;;;;;5023296;28;20116;-87
2021/12/18 12:11:59;;;;;;;;;;;11.00;96.90;;;;;;5036949;28;19917;-87
2021/12/18 12:14:27;;;;;;;;;;;11.00;97.00;;;;;;5021056;28;19912;-87
2021/12/18 12:16:56;;;;;;;;;;;11.00;97.00;;;;;;5008791;28;23413;-86
2021/12/18 12:19:37;;;;;;;;;;;11.00;97.00;;;;;;5030715;28;19923;-87
2021/12/18 12:22:08;;;;;;;;;;;11.00;97.00;;;;;;5002362;28;19909;-86
2021/12/18 12:24:52;;;;;;;;;;;11.00;96.90;;;;;;4998640;28;19913;-86
2021/12/18 12:27:39;;;;;;;;;;;11.00;96.90;;;;;;5017595;28;19913;-87
2021/12/18 12:30:07;;;;;;;;;;;11.00;96.90;;;;;;5026184;28;19916;-87
2021/12/18 12:32:35;;;;;;;;;;;11.00;96.90;;;;;;5024995;28;20373;-86
2021/12/18 12:35:13;;;;;;;;;;;11.00;96.90;;;;;;5030429;28;19917;-86
2021/12/18 12:37:43;;;;;;;;;;;11.00;96.80;;;;;;5014393;28;19917;-86
2021/12/18 12:40:10;;;;;;;;;;;11.00;96.80;;;;;;5030257;28;19942;-86
2021/12/18 12:42:38;;;;;;;;;;;11.00;96.80;;;;;;5034353;28;20384;-86
2021/12/18 12:45:14;;;;;;;;;;;11.00;96.80;;;;;;5024610;28;19930;-86
2021/12/18 12:47:52;;;;;;;;;;;11.00;96.80;;;;;;5022633;28;19915;-86
2021/12/18 12:50:18;;;;;;;;;;;11.00;96.70;;;;;;5016477;28;19909;-86
2021/12/18 12:53:05;;;;;;;;;;;11.00;96.80;;;;;;5016222;28;20266;-86
2021/12/18 12:55:43;;;;;;;;;;;11.00;96.70;;;;;;5016799;28;20086;-86
2021/12/18 12:58:21;;;;;;;;;;;11.00;96.80;;;;;;5033275;28;19919;-87
2021/12/18 13:00:49;;;;;;;;;;;11.00;96.80;;;;;;5032510;28;19924;-86
2021/12/18 13:03:18;;;;;;;;;;;11.00;96.80;;;;;;5031569;28;19909;-87
2021/12/18 13:05:47;;;;;;;;;;;11.00;96.80;;;;;;5023115;28;20411;-87
2021/12/18 13:08:14;;;;;;;;;;;11.00;96.90;;;;;;5012492;28;19913;-87
2021/12/18 13:10:42;;;;;;;;;;;11.00;96.90;;;;;;5029657;28;19912;-87
2021/12/18 13:13:13;;;;;;;;;;;11.00;96.80;;;;;;5037639;28;19913;-86
2021/12/18 13:15:52;;;;;;;;;;;11.00;96.80;;;;;;5027137;28;19915;-87
2021/12/18 13:18:21;;;;;;;;;;;11.00;96.90;;;;;;5030269;28;19920;-86
2021/12/18 13:20:55;;;;;;;;;;;11.00;96.80;;;;;;5025924;28;19917;-87
2021/12/18 13:23:23;;;;;;;;;;;11.00;96.90;;;;;;5019456;28;20137;-87
2021/12/18 13:25:51;;;;;;;;;;;11.00;96.90;;;;;;5005940;28;20281;-87
2021/12/18 13:28:18;;;;;;;;;;;11.00;97.20;;;;;;5018648;28;20282;-86
2021/12/18 13:30:47;;;;;;;;;;;11.00;96.90;;;;;;5025450;28;19908;-86
2021/12/18 13:33:14;;;;;;;;;;;11.00;96.90;;;;;;5024772;28;19923;-86
2021/12/18 13:35:43;;;;;;;;;;;11.00;96.90;;;;;;5013246;28;20385;-86
2021/12/18 13:38:11;;;;;;;;;;;11.00;96.90;;;;;;5027261;28;20384;-87
2021/12/18 13:40:43;;;;;;;;;;;11.10;96.90;;;;;;5029325;28;20124;-86
2021/12/18 13:43:11;;;;;;;;;;;11.10;96.80;;;;;;5024473;28;19909;-86
2021/12/18 13:45:49;;;;;;;;;;;11.10;96.80;;;;;;5040219;28;20439;-86
2021/12/18 13:48:16;;;;;;;;;;;11.10;96.80;;;;;;5022464;28;19913;-86
2021/12/18 13:50:50;;;;;;;;;;;11.10;96.80;;;;;;5015545;28;19915;-87
2021/12/18 13:53:17;;;;;;;;;;;11.10;96.70;;;;;;5039644;28;20274;-87
2021/12/18 13:55:55;;;;;;;;;;;11.10;96.70;;;;;;5021441;28;20095;-87
2021/12/18 13:58:22;;;;;;;;;;;11.10;96.70;;;;;;5026852;28;19912;-87
2021/12/18 14:00:49;;;;;;;;;;;11.00;96.60;;;;;;5022155;28;20010;-87
2021/12/18 14:03:22;;;;;;;;;;;11.00;96.60;;;;;;5025511;28;20205;-87
2021/12/18 14:05:50;;;;;;;;;;;11.00;96.50;;;;;;5010352;28;20508;-87
2021/12/18 14:08:17;;;;;;;;;;;11.00;96.40;;;;;;5039665;28;20365;-87
2021/12/18 14:10:45;;;;;;;;;;;11.00;96.40;;;;;;5020316;28;19917;-87
2021/12/18 14:13:12;;;;;;;;;;;10.90;96.30;;;;;;5036095;28;20392;-87
2021/12/18 14:15:39;;;;;;;;;;;10.90;96.30;;;;;;5035719;28;19913;-87
2021/12/18 14:18:24;;;;;;;;;;;10.90;96.30;;;;;;5038831;28;19917;-87
2021/12/18 14:20:51;;;;;;;;;;;10.90;96.30;;;;;;5017864;28;19912;-87
2021/12/18 14:23:18;;;;;;;;;;;10.90;96.30;;;;;;5025342;28;19913;-87
2021/12/18 14:25:45;;;;;;;;;;;10.80;96.20;;;;;;5006978;28;20120;-86
2021/12/18 14:28:21;;;;;;;;;;;10.80;96.20;;;;;;5022103;28;19909;-87
2021/12/18 14:30:47;;;;;;;;;;;10.80;96.20;;;;;;5035441;28;20564;-87
2021/12/18 14:33:14;;;;;;;;;;;10.80;96.20;;;;;;5017342;28;19927;-86
2021/12/18 14:35:48;;;;;;;;;;;10.80;96.20;;;;;;5024449;28;19913;-87
2021/12/18 14:38:16;;;;;;;;;;;10.70;96.20;;;;;;5022946;28;20366;-87
2021/12/18 14:40:43;;;;;;;;;;;10.70;96.10;;;;;;5018904;28;19917;-87
2021/12/18 14:43:14;;;;;;;;;;;10.70;96.10;;;;;;5028625;28;19931;-86
2021/12/18 14:45:41;;;;;;;;;;;10.70;96.10;;;;;;5017996;28;19909;-86
2021/12/18 14:48:08;;;;;;;;;;;10.70;96.20;;;;;;5031296;28;19916;-86
2021/12/18 14:50:39;;;;;;;;;;;10.70;96.20;;;;;;5028420;28;19913;-86
2021/12/18 14:53:14;;;;;;;;;;;10.70;96.20;;;;;;5026463;28;19908;-86
2021/12/18 14:55:44;;;;;;;;;;;10.70;96.20;;;;;;5014289;28;19919;-87
2021/12/18 14:58:10;;;;;;;;;;;10.70;96.20;;;;;;5029177;28;20260;-87
2021/12/18 15:00:56;;;;;;;;;;;10.70;96.20;;;;;;5025462;28;19912;-87
2021/12/18 15:03:22;;;;;;;;;;;10.70;96.20;;;;;;5025915;28;19909;-86
2021/12/18 15:05:55;;;;;;;;;;;10.60;96.10;;;;;;5030897;28;19935;-86
2021/12/18 15:08:32;;;;;;;;;;;10.60;96.10;;;;;;5010862;28;19913;-86
2021/12/18 15:11:04;;;;;;;;;;;10.60;96.10;;;;;;5031127;28;19912;-86